Time,TemperatureF,DewpointF,PressureIn,WindDirection,WindDirectionDegrees,WindSpeedMPH,WindSpeedGustMPH,Humidity,HourlyPrecipIn,Conditions,Clouds,dailyrainin,SolarRadiationWatts/m^2,SoftwareType,DateUTC
2013-03-25 00:03:00,31.0,26.0,-100.00,SSW,197,1.0,2.0,82,0.00,,,0.00,0.000000,,2013-03-25 04:03:00,
2013-03-25 00:12:00,31.0,28.0,-100.00,NW,308,1.0,2.0,88,0.00,,,0.00,0.000000,,2013-03-25 04:12:00,
2013-03-25 00:43:00,31.0,28.0,-100.00,NW,308,1.0,2.0,88,0.00,,,0.00,0.000000,,2013-03-25 04:43:00,
2013-03-25 00:52:00,31.0,28.0,-100.00,NW,308,1.0,2.0,88,0.00,,,0.00,0.000000,,2013-03-25 04:52:00,
2013-03-25 01:03:00,31.0,28.0,-100.00,NW,308,1.0,2.0,88,0.00,,,0.00,0.000000,,2013-03-25 05:03:00,
2013-03-25 01:12:00,32.0,29.0,-100.00,NW,307,2.0,2.0,89,0.00,,,0.00,0.000000,,2013-03-25 05:12:00,
2013-03-25 01:33:00,32.0,29.0,-100.00,NW,307,2.0,2.0,89,0.00,,,0.00,0.000000,,2013-03-25 05:33:00,
2013-03-25 01:42:00,32.0,29.0,-100.00,NW,307,2.0,2.0,89,0.00,,,0.00,0.000000,,2013-03-25 05:42:00,
2013-03-25 01:53:00,32.0,29.0,-100.00,NW,307,2.0,2.0,89,0.00,,,0.00,0.000000,,2013-03-25 05:53:00,
2013-03-25 02:02:00,32.0,29.0,-100.00,NW,307,2.0,2.0,89,0.00,,,0.00,0.000000,,2013-03-25 06:02:00,
2013-03-25 02:12:00,33.0,31.0,-100.00,NW,319,2.0,3.0,91,0.00,,,0.00,0.000000,,2013-03-25 06:12:00,
2013-03-25 02:33:00,33.0,31.0,-100.00,NW,319,2.0,3.0,91,0.00,,,0.00,0.000000,,2013-03-25 06:33:00,
2013-03-25 02:42:00,33.0,31.0,-100.00,NW,319,2.0,3.0,91,0.00,,,0.00,0.000000,,2013-03-25 06:42:00,
2013-03-25 02:53:00,33.0,31.0,-100.00,NW,319,2.0,3.0,91,0.00,,,0.00,0.000000,,2013-03-25 06:53:00,
2013-03-25 03:02:00,33.0,31.0,-100.00,NW,319,2.0,3.0,91,0.00,,,0.00,0.000000,,2013-03-25 07:02:00,
2013-03-25 03:12:00,32.0,30.0,-100.00,NW,319,2.0,3.0,93,0.00,,,0.00,0.000000,,2013-03-25 07:12:00,
2013-03-25 03:42:00,32.0,30.0,-100.00,NW,319,2.0,3.0,93,0.00,,,0.00,0.000000,,2013-03-25 07:42:00,
2013-03-25 03:53:00,32.0,30.0,-100.00,NW,319,2.0,3.0,93,0.00,,,0.00,0.000000,,2013-03-25 07:53:00,
2013-03-25 04:03:00,32.0,30.0,-100.00,NW,319,2.0,3.0,93,0.00,,,0.00,0.000000,,2013-03-25 08:03:00,
2013-03-25 04:12:00,33.0,31.0,-100.00,NW,326,2.0,4.0,93,0.00,,,0.00,0.000000,,2013-03-25 08:12:00,
2013-03-25 04:43:00,33.0,31.0,-100.00,NW,326,2.0,4.0,93,0.00,,,0.00,0.000000,,2013-03-25 08:43:00,
2013-03-25 04:52:00,33.0,31.0,-100.00,NW,326,2.0,4.0,93,0.00,,,0.00,0.000000,,2013-03-25 08:52:00,
2013-03-25 05:02:00,33.0,31.0,-100.00,NW,326,2.0,4.0,93,0.00,,,0.00,0.000000,,2013-03-25 09:02:00,
2013-03-25 05:12:00,33.0,31.0,-100.00,NW,326,3.0,3.0,93,0.00,,,0.00,0.000000,,2013-03-25 09:12:00,
2013-03-25 05:33:00,33.0,31.0,-100.00,NW,326,3.0,3.0,93,0.00,,,0.00,0.000000,,2013-03-25 09:33:00,
2013-03-25 05:43:00,33.0,31.0,-100.00,NW,326,3.0,3.0,93,0.00,,,0.00,0.000000,,2013-03-25 09:43:00,
2013-03-25 05:53:00,33.0,31.0,-100.00,NW,326,3.0,3.0,93,0.00,,,0.00,0.000000,,2013-03-25 09:53:00,
2013-03-25 06:03:00,33.0,31.0,-100.00,NW,326,3.0,3.0,93,0.00,,,0.00,0.000000,,2013-03-25 10:03:00,
2013-03-25 06:12:00,36.0,32.0,-100.00,NNE,31,3.0,7.0,86,0.00,,,0.00,0.000000,,2013-03-25 10:12:00,
2013-03-25 06:43:00,36.0,32.0,-100.00,NNE,31,3.0,7.0,86,0.00,,,0.00,0.000000,,2013-03-25 10:43:00,
2013-03-25 06:54:00,36.0,32.0,-100.00,NNE,31,3.0,7.0,86,0.00,,,0.00,0.000000,,2013-03-25 10:54:00,
2013-03-25 07:03:00,36.0,32.0,-100.00,NNE,31,3.0,7.0,86,0.00,,,0.00,0.000000,,2013-03-25 11:03:00,
2013-03-25 07:12:00,38.0,33.0,-100.00,NE,48,4.0,9.0,81,0.00,,,0.00,13.000000,,2013-03-25 11:12:00,
2013-03-25 07:33:00,38.0,33.0,-100.00,NE,48,4.0,9.0,81,0.00,,,0.00,13.000000,,2013-03-25 11:33:00,
2013-03-25 07:43:00,38.0,33.0,-100.00,NE,48,4.0,9.0,81,0.00,,,0.00,13.000000,,2013-03-25 11:43:00,
2013-03-25 07:53:00,38.0,33.0,-100.00,NE,48,4.0,9.0,81,0.00,,,0.00,13.000000,,2013-03-25 11:53:00,
2013-03-25 08:03:00,38.0,33.0,-100.00,NE,48,4.0,9.0,81,0.00,,,0.00,13.000000,,2013-03-25 12:03:00,
2013-03-25 08:12:00,40.0,33.0,-100.00,NE,53,6.0,11.0,76,0.00,,,0.00,129.000000,,2013-03-25 12:12:00,
2013-03-25 08:33:00,40.0,33.0,-100.00,NE,53,6.0,11.0,76,0.00,,,0.00,129.000000,,2013-03-25 12:33:00,
2013-03-25 08:43:00,40.0,33.0,-100.00,NE,53,6.0,11.0,76,0.00,,,0.00,129.000000,,2013-03-25 12:43:00,
2013-03-25 08:54:00,40.0,33.0,-100.00,NE,53,6.0,11.0,76,0.00,,,0.00,129.000000,,2013-03-25 12:54:00,
2013-03-25 09:03:00,40.0,33.0,-100.00,NE,53,6.0,11.0,76,0.00,,,0.00,129.000000,,2013-03-25 13:03:00,
2013-03-25 09:12:00,42.0,34.0,-100.00,ENE,66,7.0,12.0,72,0.00,,,0.00,265.000000,,2013-03-25 13:12:00,
2013-03-25 09:32:00,42.0,34.0,-100.00,ENE,66,7.0,12.0,72,0.00,,,0.00,265.000000,,2013-03-25 13:32:00,
2013-03-25 09:43:00,42.0,34.0,-100.00,ENE,66,7.0,12.0,72,0.00,,,0.00,265.000000,,2013-03-25 13:43:00,
2013-03-25 09:53:00,42.0,34.0,-100.00,ENE,66,7.0,12.0,72,0.00,,,0.00,265.000000,,2013-03-25 13:53:00,
2013-03-25 10:03:00,42.0,34.0,-100.00,ENE,66,7.0,12.0,72,0.00,,,0.00,265.000000,,2013-03-25 14:03:00,
2013-03-25 10:12:00,43.0,28.0,-100.00,ENE,77,9.0,14.0,56,0.00,,,0.00,432.000000,,2013-03-25 14:12:00,
2013-03-25 10:33:00,43.0,28.0,-100.00,ENE,77,9.0,14.0,56,0.00,,,0.00,432.000000,,2013-03-25 14:33:00,
2013-03-25 10:43:00,43.0,28.0,-100.00,ENE,77,9.0,14.0,56,0.00,,,0.00,432.000000,,2013-03-25 14:43:00,
2013-03-25 10:53:00,43.0,28.0,-100.00,ENE,77,9.0,14.0,56,0.00,,,0.00,432.000000,,2013-03-25 14:53:00,
2013-03-25 11:03:00,43.0,28.0,-100.00,ENE,77,9.0,14.0,56,0.00,,,0.00,432.000000,,2013-03-25 15:03:00,
2013-03-25 11:12:00,44.0,28.0,-100.00,ENE,72,9.0,17.0,53,0.00,,,0.00,633.000000,,2013-03-25 15:12:00,
2013-03-25 11:43:00,44.0,28.0,-100.00,ENE,72,9.0,17.0,53,0.00,,,0.00,633.000000,,2013-03-25 15:43:00,
2013-03-25 11:54:00,44.0,28.0,-100.00,ENE,72,9.0,17.0,53,0.00,,,0.00,633.000000,,2013-03-25 15:54:00,
2013-03-25 12:03:00,44.0,28.0,-100.00,ENE,72,9.0,17.0,53,0.00,,,0.00,633.000000,,2013-03-25 16:03:00,
2013-03-25 12:12:00,45.0,27.0,-100.00,ENE,69,10.0,17.0,50,0.00,,,0.00,946.000000,,2013-03-25 16:12:00,
2013-03-25 12:44:00,45.0,27.0,-100.00,ENE,69,10.0,17.0,50,0.00,,,0.00,946.000000,,2013-03-25 16:44:00,
2013-03-25 12:53:00,45.0,27.0,-100.00,ENE,69,10.0,17.0,50,0.00,,,0.00,946.000000,,2013-03-25 16:53:00,
2013-03-25 13:03:00,45.0,27.0,-100.00,ENE,69,10.0,17.0,50,0.00,,,0.00,946.000000,,2013-03-25 17:03:00,
2013-03-25 13:12:00,45.0,28.0,-100.00,ENE,68,9.0,19.0,51,0.00,,,0.00,1070.000000,,2013-03-25 17:12:00,
2013-03-25 13:43:00,45.0,28.0,-100.00,ENE,68,9.0,19.0,51,0.00,,,0.00,1070.000000,,2013-03-25 17:43:00,
2013-03-25 13:53:00,45.0,28.0,-100.00,ENE,68,9.0,19.0,51,0.00,,,0.00,1070.000000,,2013-03-25 17:53:00,
2013-03-25 14:04:00,45.0,28.0,-100.00,ENE,68,9.0,19.0,51,0.00,,,0.00,1070.000000,,2013-03-25 18:04:00,
2013-03-25 14:12:00,42.0,27.0,-100.00,ENE,71,11.0,19.0,54,0.00,,,0.00,758.000000,,2013-03-25 18:12:00,
2013-03-25 14:43:00,42.0,27.0,-100.00,ENE,71,11.0,19.0,54,0.00,,,0.00,758.000000,,2013-03-25 18:43:00,
2013-03-25 14:53:00,42.0,27.0,-100.00,ENE,71,11.0,19.0,54,0.00,,,0.00,758.000000,,2013-03-25 18:53:00,
2013-03-25 15:03:00,42.0,27.0,-100.00,ENE,71,11.0,19.0,54,0.00,,,0.00,758.000000,,2013-03-25 19:03:00,
2013-03-25 15:12:00,43.0,29.0,-100.00,ENE,60,8.0,19.0,58,0.00,,,0.00,498.000000,,2013-03-25 19:12:00,
2013-03-25 15:43:00,43.0,29.0,-100.00,ENE,60,8.0,19.0,58,0.00,,,0.00,498.000000,,2013-03-25 19:43:00,
2013-03-25 15:53:00,43.0,29.0,-100.00,ENE,60,8.0,19.0,58,0.00,,,0.00,498.000000,,2013-03-25 19:53:00,
2013-03-25 16:02:00,43.0,29.0,-100.00,ENE,60,8.0,19.0,58,0.00,,,0.00,498.000000,,2013-03-25 20:02:00,
2013-03-25 16:12:00,41.0,28.0,-100.00,NE,54,10.0,22.0,59,0.00,,,0.00,367.000000,,2013-03-25 20:12:00,
2013-03-25 16:42:00,41.0,28.0,-100.00,NE,54,10.0,22.0,59,0.00,,,0.00,367.000000,,2013-03-25 20:42:00,
2013-03-25 16:52:00,41.0,28.0,-100.00,NE,54,10.0,22.0,59,0.00,,,0.00,367.000000,,2013-03-25 20:52:00,
2013-03-25 17:03:00,41.0,28.0,-100.00,NE,54,10.0,22.0,59,0.00,,,0.00,367.000000,,2013-03-25 21:03:00,
2013-03-25 17:12:00,39.0,28.0,-100.00,NE,51,11.0,21.0,64,0.00,,,0.00,120.000000,,2013-03-25 21:12:00,
2013-03-25 17:33:00,39.0,28.0,-100.00,NE,51,11.0,21.0,64,0.00,,,0.00,120.000000,,2013-03-25 21:33:00,
2013-03-25 17:43:00,39.0,28.0,-100.00,NE,51,11.0,21.0,64,0.00,,,0.00,120.000000,,2013-03-25 21:43:00,
2013-03-25 17:52:00,39.0,28.0,-100.00,NE,51,11.0,21.0,64,0.00,,,0.00,120.000000,,2013-03-25 21:52:00,
2013-03-25 18:03:00,39.0,28.0,-100.00,NE,51,11.0,21.0,64,0.00,,,0.00,120.000000,,2013-03-25 22:03:00,
2013-03-25 18:12:00,39.0,29.0,-100.00,NE,55,10.0,21.0,67,0.00,,,0.00,41.000000,,2013-03-25 22:12:00,
2013-03-25 18:43:00,39.0,29.0,-100.00,NE,55,10.0,21.0,67,0.00,,,0.00,41.000000,,2013-03-25 22:43:00,
2013-03-25 18:52:00,39.0,29.0,-100.00,NE,55,10.0,21.0,67,0.00,,,0.00,41.000000,,2013-03-25 22:52:00,
2013-03-25 19:03:00,39.0,29.0,-100.00,NE,55,10.0,21.0,67,0.00,,,0.00,41.000000,,2013-03-25 23:03:00,
2013-03-25 19:12:00,39.0,30.0,-100.00,NE,46,10.0,21.0,69,0.00,,,0.00,6.000000,,2013-03-25 23:12:00,
2013-03-25 19:43:00,39.0,30.0,-100.00,NE,46,10.0,21.0,69,0.00,,,0.00,6.000000,,2013-03-25 23:43:00,
2013-03-25 19:53:00,39.0,30.0,-100.00,NE,46,10.0,21.0,69,0.00,,,0.00,6.000000,,2013-03-25 23:53:00,
2013-03-25 20:02:00,39.0,30.0,-100.00,NE,46,10.0,21.0,69,0.00,,,0.00,6.000000,,2013-03-26 00:02:00,
2013-03-25 21:12:00,38.0,34.0,-100.00,NE,34,10.0,20.0,84,-99.99,,,0.00,0.000000,,2013-03-26 01:12:00,
2013-03-25 21:33:00,38.0,34.0,-100.00,NE,34,10.0,20.0,84,-99.99,,,0.00,0.000000,,2013-03-26 01:33:00,
2013-03-25 21:42:00,38.0,34.0,-100.00,NE,34,10.0,20.0,84,-99.99,,,0.00,0.000000,,2013-03-26 01:42:00,
2013-03-25 21:53:00,38.0,34.0,-100.00,NE,34,10.0,20.0,84,-99.99,,,0.00,0.000000,,2013-03-26 01:53:00,
2013-03-25 22:02:00,38.0,34.0,-100.00,NE,34,10.0,20.0,84,-99.99,,,0.00,0.000000,,2013-03-26 02:02:00,
2013-03-25 22:12:00,39.0,30.0,-100.00,NE,38,10.0,20.0,70,0.00,,,0.00,0.000000,,2013-03-26 02:12:00,
2013-03-25 22:43:00,39.0,30.0,-100.00,NE,38,10.0,20.0,70,0.00,,,0.00,0.000000,,2013-03-26 02:43:00,
2013-03-25 22:52:00,39.0,30.0,-100.00,NE,38,10.0,20.0,70,0.00,,,0.00,0.000000,,2013-03-26 02:52:00,
2013-03-25 23:02:00,39.0,30.0,-100.00,NE,38,10.0,20.0,70,0.00,,,0.00,0.000000,,2013-03-26 03:02:00,
2013-03-25 23:12:00,39.0,31.0,-100.00,NNE,30,9.0,22.0,72,0.00,,,0.00,0.000000,,2013-03-26 03:12:00,
2013-03-25 23:34:00,39.0,31.0,-100.00,NNE,30,9.0,22.0,72,0.00,,,0.00,0.000000,,2013-03-26 03:34:00,
2013-03-25 23:43:00,39.0,31.0,-100.00,NNE,30,9.0,22.0,72,0.00,,,0.00,0.000000,,2013-03-26 03:43:00,
2013-03-25 23:53:00,39.0,31.0,-100.00,NNE,30,9.0,22.0,72,0.00,,,0.00,0.000000,,2013-03-26 03:53:00,